LYBE/BEG METAR and TAF weather

Enter ICAO airport designator
Station Type Date Time Source
LYBE METAR 2018/07/19 19:00 UTC NOAA

LYBE 191900Z 26008KT 9999 FEW010 22/19 Q1012 NOSIG


Station Type Date Time Source
LYBE Decoded METAR 2018/07/19 19:00 UTC NOAA

Beograd / Surcin, Serbia and Montenegro (LYBE) 44-49N 020-17E 99M
Jul 19, 2018 - 03:00 PM EDT / 2018.07.19 1900 UTC
Wind: from the W (260 degrees) at 9 MPH (8 KT):0
Visibility: greater than 7 mile(s):0
Sky conditions: mostly clear
Temperature: 71 F (22 C)
Dew Point: 66 F (19 C)
Relative Humidity: 83%
Pressure (altimeter): 29.88 in. Hg (1012 hPa)
ob: LYBE 191900Z 26008KT 9999 FEW010 22/19 Q1012 NOSIG
cycle: 19

Station Type Date Time Source
LYBE TAF 2018/07/19 18:21 UTC NOAA

TAF LYBE 191700Z 1918/2018 30012KT 9999 SCT040 TX28/2013Z TN18/2003Z


Example: see airport list